createdAt,value
2022-08-11T00:01:13.503Z,24.28
2022-08-11T00:03:50.736Z,24.29
2022-08-11T00:06:28.047Z,24.33
2022-08-11T00:08:56.005Z,24.30
2022-08-11T00:11:38.390Z,24.28
2022-08-11T00:14:14.435Z,24.26
2022-08-11T00:16:42.123Z,24.19
2022-08-11T00:19:11.429Z,24.16
2022-08-11T00:22:04.382Z,24.15
2022-08-11T00:24:50.907Z,24.10
2022-08-11T00:27:20.566Z,24.10
2022-08-11T00:29:56.342Z,24.06
2022-08-11T00:32:24.933Z,24.03
2022-08-11T00:35:54.865Z,23.99
2022-08-11T00:37:50.656Z,23.89
2022-08-11T00:40:30.291Z,23.76
2022-08-11T00:43:20.416Z,23.64
2022-08-11T00:46:33.271Z,23.50
2022-08-11T00:49:43.101Z,23.39
2022-08-11T00:52:46.116Z,23.33
2022-08-11T00:55:33.247Z,23.37
2022-08-11T00:58:21.764Z,23.40
2022-08-11T01:00:58.398Z,23.47
2022-08-11T01:03:40.664Z,23.54
2022-08-11T01:06:42.597Z,23.55
2022-08-11T01:09:45.405Z,23.53
2022-08-11T01:12:15.672Z,23.47
2022-08-11T01:15:14.979Z,23.41
2022-08-11T01:18:10.625Z,23.38
2022-08-11T01:20:49.490Z,23.35
2022-08-11T01:23:33.185Z,23.35
2022-08-11T01:26:18.326Z,23.31
2022-08-11T01:29:15.126Z,23.29
2022-08-11T01:32:12.560Z,23.24
2022-08-11T01:35:05.753Z,23.22
2022-08-11T01:37:54.290Z,23.21
2022-08-11T01:40:28.204Z,23.21
2022-08-11T01:43:35.952Z,23.20
2022-08-11T01:46:21.257Z,23.20
2022-08-11T01:50:05.160Z,23.17
2022-08-11T01:52:09.591Z,23.16
2022-08-11T01:55:15.391Z,23.12
2022-08-11T01:57:56.554Z,23.10
2022-08-11T02:00:30.416Z,23.04
2022-08-11T02:03:31.198Z,22.95
2022-08-11T02:06:37.625Z,22.89
2022-08-11T02:09:30.063Z,22.82
2022-08-11T02:12:10.112Z,22.75
2022-08-11T02:15:15.389Z,22.78
2022-08-11T02:17:50.671Z,22.78
2022-08-11T02:20:57.328Z,22.80
2022-08-11T02:24:04.879Z,22.79
2022-08-11T02:26:47.176Z,22.81
2022-08-11T02:29:25.649Z,22.77
2022-08-11T02:32:29.933Z,22.74
2022-08-11T02:35:19.850Z,22.67
2022-08-11T02:38:00.642Z,22.56
2022-08-11T02:40:34.003Z,22.54
2022-08-11T02:43:12.486Z,22.50
2022-08-11T02:46:06.133Z,22.54
2022-08-11T02:49:06.282Z,22.53
2022-08-11T02:51:55.195Z,22.47
2022-08-11T02:54:29.632Z,22.49
2022-08-11T02:57:02.385Z,22.43
2022-08-11T02:59:59.439Z,22.32
2022-08-11T03:02:31.509Z,22.24
2022-08-11T03:05:01.401Z,22.26
2022-08-11T03:07:35.095Z,22.17
2022-08-11T03:10:15.213Z,22.13
2022-08-11T03:13:22.498Z,22.12
2022-08-11T03:16:30.741Z,22.18
2022-08-11T03:19:16.083Z,22.21
2022-08-11T03:22:02.567Z,22.22
2022-08-11T03:24:44.906Z,22.15
2022-08-11T03:27:28.066Z,22.12
2022-08-11T03:30:15.276Z,22.15
2022-08-11T03:33:23.673Z,22.14
2022-08-11T03:36:25.779Z,22.14
2022-08-11T03:39:03.864Z,22.06
2022-08-11T03:42:02.087Z,22.06
2022-08-11T03:45:02.278Z,22.11
2022-08-11T03:47:52.284Z,22.07
2022-08-11T03:50:42.262Z,22.04
2022-08-11T03:53:50.885Z,21.98
2022-08-11T03:56:36.298Z,21.94
2022-08-11T03:59:06.128Z,21.88
2022-08-11T04:01:50.719Z,21.87
2022-08-11T04:04:55.370Z,21.85
2022-08-11T04:07:31.218Z,21.81
2022-08-11T04:10:33.567Z,21.74
2022-08-11T04:13:34.056Z,21.79
2022-08-11T04:16:11.728Z,21.77
2022-08-11T04:18:54.461Z,21.78
2022-08-11T04:21:49.850Z,21.74
2022-08-11T04:24:39.751Z,21.75
2022-08-11T04:27:37.047Z,21.73
2022-08-11T04:30:17.565Z,21.66
2022-08-11T04:33:03.152Z,21.58
2022-08-11T04:35:48.585Z,21.57
2022-08-11T04:38:35.908Z,21.51
2022-08-11T04:41:20.940Z,21.63
2022-08-11T04:44:11.293Z,21.62
2022-08-11T04:47:08.157Z,21.70
2022-08-11T04:50:08.671Z,21.75
2022-08-11T04:53:13.209Z,21.73
2022-08-11T04:56:17.831Z,21.78
2022-08-11T04:59:19.564Z,21.82
2022-08-11T05:01:49.265Z,21.80
2022-08-11T05:04:50.328Z,21.84
2022-08-11T05:07:20.047Z,21.90
2022-08-11T05:09:46.724Z,21.92
2022-08-11T05:12:31.927Z,22.05
2022-08-11T05:15:18.880Z,22.08
2022-08-11T05:18:28.128Z,22.20
2022-08-11T05:21:16.671Z,22.47
2022-08-11T05:24:07.818Z,22.74
2022-08-11T05:27:04.397Z,23.09
2022-08-11T05:29:58.937Z,23.41
2022-08-11T05:33:02.072Z,23.73
2022-08-11T05:36:02.163Z,24.18
2022-08-11T05:38:52.992Z,24.59
2022-08-11T05:41:42.256Z,25.05
2022-08-11T05:44:29.711Z,25.41
2022-08-11T05:47:16.084Z,25.77
2022-08-11T05:50:09.117Z,26.11
2022-08-11T05:53:04.419Z,26.38
2022-08-11T05:56:01.952Z,26.72
2022-08-11T05:58:42.405Z,27.04
2022-08-11T06:01:12.023Z,27.27
2022-08-11T06:04:09.284Z,27.36
2022-08-11T06:06:45.155Z,27.62
2022-08-11T06:09:14.599Z,27.90
2022-08-11T06:11:44.977Z,27.88
2022-08-11T06:14:13.316Z,27.75
2022-08-11T06:16:42.705Z,28.12
2022-08-11T06:19:10.473Z,28.13
2022-08-11T06:21:38.333Z,28.02
2022-08-11T06:24:12.504Z,28.14
2022-08-11T06:27:11.064Z,28.15
2022-08-11T06:29:54.913Z,28.46
2022-08-11T06:32:35.366Z,28.31
2022-08-11T06:35:13.138Z,28.21
2022-08-11T06:38:06.406Z,28.57
2022-08-11T06:40:36.236Z,28.66
2022-08-11T06:43:19.900Z,28.83
2022-08-11T06:46:08.165Z,29.19
2022-08-11T06:48:39.177Z,29.29
2022-08-11T06:51:12.767Z,29.82
2022-08-11T06:54:03.893Z,30.35
2022-08-11T06:57:26.212Z,30.51
2022-08-11T07:00:03.480Z,30.54
2022-08-11T07:02:38.011Z,30.18
2022-08-11T07:05:25.418Z,30.27
2022-08-11T07:08:51.274Z,30.52
2022-08-11T07:11:48.287Z,30.98
2022-08-11T07:14:44.037Z,31.88
2022-08-11T07:17:17.387Z,32.25
2022-08-11T07:20:09.313Z,32.67
2022-08-11T07:22:55.715Z,32.52
2022-08-11T07:25:43.475Z,32.37
2022-08-11T07:28:34.627Z,32.46
2022-08-11T07:31:14.056Z,32.62
2022-08-11T07:34:07.859Z,32.91
2022-08-11T07:36:45.930Z,32.56
2022-08-11T07:39:21.098Z,32.42
2022-08-11T07:41:50.168Z,32.29
2022-08-11T07:44:17.915Z,32.47
2022-08-11T07:47:07.248Z,32.15
2022-08-11T07:49:57.945Z,32.35
2022-08-11T07:52:37.247Z,32.51
2022-08-11T07:55:08.583Z,32.88
2022-08-11T07:58:16.371Z,32.89
2022-08-11T08:01:22.387Z,33.02
2022-08-11T08:04:09.568Z,32.95
2022-08-11T08:06:55.377Z,33.41
2022-08-11T08:09:42.908Z,34.23
2022-08-11T08:12:28.746Z,34.41
2022-08-11T08:15:15.527Z,35.10
2022-08-11T08:18:20.709Z,35.48
2022-08-11T08:20:44.287Z,36.21
2022-08-11T08:23:11.721Z,36.47
2022-08-11T08:25:41.212Z,37.27
2022-08-11T08:28:15.550Z,37.43
2022-08-11T08:30:55.261Z,37.66
2022-08-11T08:33:31.345Z,37.52
2022-08-11T08:36:15.021Z,37.91
2022-08-11T08:38:47.068Z,37.68
2022-08-11T08:41:19.559Z,38.23
2022-08-11T08:43:51.586Z,38.58
2022-08-11T08:46:25.513Z,39.37
2022-08-11T08:48:53.371Z,39.40
2022-08-11T08:52:02.526Z,39.49
2022-08-11T08:54:28.871Z,40.28
2022-08-11T08:56:56.746Z,40.82
2022-08-11T08:59:26.801Z,41.28
2022-08-11T09:02:14.123Z,41.73
2022-08-11T09:04:44.545Z,40.56
2022-08-11T09:07:23.405Z,40.73
2022-08-11T09:09:56.842Z,40.23
2022-08-11T09:12:36.096Z,41.11
2022-08-11T09:15:09.207Z,41.31
2022-08-11T09:17:41.415Z,41.55
2022-08-11T09:20:12.731Z,40.73
2022-08-11T09:26:08.866Z,41.14
2022-08-11T09:28:36.806Z,41.70
2022-08-11T09:31:06.611Z,41.98
2022-08-11T09:33:34.005Z,41.95
2022-08-11T09:36:24.006Z,42.36
2022-08-11T09:39:11.813Z,42.04
2022-08-11T09:42:00.994Z,42.04
2022-08-11T09:44:48.554Z,42.42
2022-08-11T09:47:19.005Z,43.97
2022-08-11T09:49:46.809Z,42.54
2022-08-11T09:52:15.286Z,43.94
2022-08-11T09:54:48.284Z,44.14
2022-08-11T09:57:37.526Z,43.33
2022-08-11T10:00:13.275Z,43.28
2022-08-11T10:02:45.123Z,42.22
2022-08-11T10:05:34.335Z,42.72
2022-08-11T10:08:02.062Z,43.05
2022-08-11T10:10:32.498Z,43.48
2022-08-11T10:13:05.227Z,42.98
2022-08-11T10:16:03.554Z,43.60
2022-08-11T10:18:49.205Z,44.36
2022-08-11T10:21:40.805Z,43.45
2022-08-11T10:27:43.169Z,43.08
2022-08-11T10:30:44.619Z,44.23
2022-08-11T10:33:37.582Z,46.05
2022-08-11T10:36:16.313Z,46.07
2022-08-11T10:38:45.778Z,44.67
2022-08-11T10:42:03.453Z,45.04
2022-08-11T10:44:27.346Z,45.44
2022-08-11T10:47:12.976Z,45.33
2022-08-11T10:49:40.183Z,44.91
2022-08-11T10:52:26.006Z,43.41
2022-08-11T10:55:11.691Z,42.06
2022-08-11T10:58:04.768Z,42.40
2022-08-11T11:00:33.251Z,43.69
2022-08-11T11:03:22.329Z,43.24
2022-08-11T11:06:27.185Z,43.28
2022-08-11T11:08:57.621Z,44.39
2022-08-11T11:11:52.314Z,45.05
2022-08-11T11:14:46.683Z,46.44
2022-08-11T11:17:47.328Z,47.25
2022-08-11T11:20:37.463Z,45.95
2022-08-11T11:23:28.015Z,46.05
2022-08-11T11:26:10.435Z,47.07
2022-08-11T11:29:15.253Z,46.12
2022-08-11T11:31:51.636Z,45.07
2022-08-11T11:35:06.217Z,46.13
2022-08-11T11:37:36.625Z,45.07
2022-08-11T11:40:10.722Z,44.64
2022-08-11T11:42:40.537Z,44.86
2022-08-11T11:45:09.890Z,45.82
2022-08-11T11:47:52.531Z,46.92
2022-08-11T11:50:46.761Z,47.19
2022-08-11T11:53:14.036Z,45.39
2022-08-11T11:55:41.992Z,44.44
2022-08-11T11:58:28.277Z,45.53
2022-08-11T12:01:15.330Z,45.83
2022-08-11T12:03:45.924Z,44.77
2022-08-11T12:06:14.305Z,43.68
2022-08-11T12:08:42.898Z,43.99
2022-08-11T12:11:30.488Z,44.40
2022-08-11T12:14:00.539Z,42.18
2022-08-11T12:16:33.499Z,41.64
2022-08-11T12:19:11.816Z,41.03
2022-08-11T12:22:00.926Z,41.06
2022-08-11T12:24:51.274Z,40.17
2022-08-11T12:27:25.019Z,40.09
2022-08-11T12:30:11.231Z,39.49
2022-08-11T12:32:40.529Z,38.66
2022-08-11T12:35:08.445Z,38.30
2022-08-11T12:37:37.310Z,37.86
2022-08-11T12:40:49.595Z,37.56
2022-08-11T12:43:39.491Z,36.85
2022-08-11T12:46:10.500Z,37.21
2022-08-11T12:49:03.165Z,37.16
2022-08-11T12:52:14.351Z,37.57
2022-08-11T12:54:49.827Z,36.46
2022-08-11T12:57:41.367Z,36.12
2022-08-11T13:00:28.226Z,36.11
2022-08-11T13:03:15.218Z,36.51
2022-08-11T13:05:47.079Z,35.93
2022-08-11T13:08:17.110Z,35.67
2022-08-11T13:11:04.166Z,35.39
2022-08-11T13:13:54.168Z,35.64
2022-08-11T13:16:20.599Z,36.04
2022-08-11T13:18:48.720Z,35.32
2022-08-11T13:21:20.644Z,35.15
2022-08-11T13:24:01.179Z,35.41
2022-08-11T13:26:43.474Z,35.56
2022-08-11T13:29:23.189Z,35.69
2022-08-11T13:31:52.124Z,35.57
2022-08-11T13:34:20.784Z,35.56
2022-08-11T13:36:52.223Z,35.18
2022-08-11T13:39:23.918Z,35.53
2022-08-11T13:41:55.183Z,35.53
2022-08-11T13:44:25.750Z,35.53
2022-08-11T13:47:03.854Z,35.47
2022-08-11T13:49:39.675Z,35.32
2022-08-11T13:52:12.969Z,34.88
2022-08-11T13:54:41.234Z,34.72
2022-08-11T13:57:38.580Z,34.92
2022-08-11T14:00:13.352Z,34.72
2022-08-11T14:02:54.669Z,34.76
2022-08-11T14:05:29.302Z,34.26
2022-08-11T14:08:02.031Z,34.23
2022-08-11T14:10:32.848Z,33.86
2022-08-11T14:13:42.547Z,33.53
2022-08-11T14:16:26.278Z,33.74
2022-08-11T14:18:57.648Z,33.89
2022-08-11T14:21:44.031Z,34.00
2022-08-11T14:24:13.073Z,34.41
2022-08-11T14:26:43.444Z,34.69
2022-08-11T14:29:29.650Z,34.89
2022-08-11T14:32:02.055Z,35.03
2022-08-11T14:34:32.009Z,34.72
2022-08-11T14:37:01.714Z,34.60
2022-08-11T14:40:02.255Z,34.49
2022-08-11T14:42:59.363Z,34.40
2022-08-11T14:45:54.429Z,34.45
2022-08-11T14:48:26.912Z,34.28
2022-08-11T14:50:53.997Z,34.35
2022-08-11T14:53:22.788Z,33.86
2022-08-11T14:56:09.144Z,33.85
2022-08-11T14:58:37.674Z,33.87
2022-08-11T15:01:25.055Z,34.09
2022-08-11T15:04:31.311Z,34.51
2022-08-11T15:06:39.642Z,34.49
2022-08-11T15:09:09.000Z,33.91
2022-08-11T15:11:55.187Z,33.63
2022-08-11T15:14:41.354Z,33.69
2022-08-11T15:17:09.631Z,33.67
2022-08-11T15:19:59.614Z,34.00
2022-08-11T15:22:45.092Z,34.07
2022-08-11T15:25:12.523Z,34.10
2022-08-11T15:27:59.531Z,34.19
2022-08-11T15:30:46.017Z,34.39
2022-08-11T15:33:35.299Z,34.27
2022-08-11T15:36:24.166Z,33.89
2022-08-11T15:39:28.056Z,33.93
2022-08-11T15:42:35.988Z,34.00
2022-08-11T15:45:26.008Z,34.15
2022-08-11T15:48:05.054Z,34.35
2022-08-11T15:50:38.598Z,34.45
2022-08-11T15:53:14.087Z,34.26
2022-08-11T15:55:43.529Z,34.19
2022-08-11T15:58:31.597Z,33.97
2022-08-11T16:01:20.548Z,33.82
2022-08-11T16:04:12.505Z,33.82
2022-08-11T16:06:50.960Z,33.90
2022-08-11T16:09:23.529Z,34.10
2022-08-11T16:11:52.047Z,33.85
2022-08-11T16:14:39.028Z,33.70
2022-08-11T16:17:09.902Z,33.61
2022-08-11T16:19:39.785Z,33.43
2022-08-11T16:22:11.992Z,33.38
2022-08-11T16:27:04.808Z,33.43
2022-08-11T16:27:37.133Z,33.12
2022-08-11T16:30:05.914Z,33.00
2022-08-11T16:32:34.381Z,32.97
2022-08-11T16:35:24.564Z,32.87
2022-08-11T16:38:12.510Z,33.06
2022-08-11T16:40:40.333Z,33.00
2022-08-11T16:43:30.800Z,32.79
2022-08-11T16:46:37.647Z,33.04
2022-08-11T16:49:07.587Z,33.06
2022-08-11T16:51:34.580Z,32.92
2022-08-11T16:54:05.757Z,32.76
2022-08-11T16:56:47.979Z,32.63
2022-08-11T16:59:26.368Z,32.50
2022-08-11T17:02:02.351Z,32.52
2022-08-11T17:04:48.242Z,32.36
2022-08-11T17:07:42.337Z,32.28
2022-08-11T17:11:14.184Z,32.29
2022-08-11T17:13:47.533Z,32.24
2022-08-11T17:16:20.249Z,32.24
2022-08-11T17:18:51.543Z,32.25
2022-08-11T17:21:21.086Z,32.21
2022-08-11T17:23:52.765Z,32.01
2022-08-11T17:26:26.798Z,31.96
2022-08-11T17:28:59.297Z,31.89
2022-08-11T17:31:47.566Z,31.84
2022-08-11T17:34:33.906Z,31.98
2022-08-11T17:37:01.664Z,31.90
2022-08-11T17:39:30.753Z,31.80
2022-08-11T17:42:19.094Z,31.87
2022-08-11T17:45:05.449Z,31.78
2022-08-11T17:47:53.369Z,31.86
2022-08-11T17:50:21.172Z,31.78
2022-08-11T17:53:08.183Z,31.77
2022-08-11T17:55:57.780Z,31.77
2022-08-11T17:58:45.203Z,31.51
2022-08-11T18:01:12.842Z,31.55
2022-08-11T18:03:41.787Z,31.56
2022-08-11T18:06:21.145Z,31.31
2022-08-11T18:09:22.943Z,31.49
2022-08-11T18:12:12.705Z,31.49
2022-08-11T18:15:02.738Z,31.43
2022-08-11T18:17:48.160Z,31.33
2022-08-11T18:20:33.638Z,31.19
2022-08-11T18:23:21.951Z,31.02
2022-08-11T18:26:29.724Z,31.04
2022-08-11T18:29:17.604Z,30.93
2022-08-11T18:32:07.010Z,30.88
2022-08-11T18:34:59.134Z,30.86
2022-08-11T18:37:49.688Z,30.72
2022-08-11T18:40:45.683Z,30.65
2022-08-11T18:43:33.896Z,30.67
2022-08-11T18:46:23.407Z,30.59
2022-08-11T18:49:15.578Z,30.61
2022-08-11T18:52:06.861Z,30.48
2022-08-11T18:54:56.207Z,30.44
2022-08-11T18:57:49.647Z,30.29
2022-08-11T19:00:42.029Z,30.18
2022-08-11T19:03:30.971Z,29.96
2022-08-11T19:06:39.724Z,29.88
2022-08-11T19:09:28.747Z,29.83
2022-08-11T19:12:15.263Z,29.68
2022-08-11T19:15:03.195Z,29.49
2022-08-11T19:17:51.419Z,29.47
2022-08-11T19:20:40.842Z,29.31
2022-08-11T19:23:29.615Z,29.21
2022-08-11T19:26:16.461Z,29.09
2022-08-11T19:29:06.575Z,29.02
2022-08-11T19:31:53.178Z,28.97
2022-08-11T19:34:41.693Z,28.92
2022-08-11T19:37:29.843Z,28.87
2022-08-11T19:40:24.581Z,28.84
2022-08-11T19:43:18.613Z,28.79
2022-08-11T19:46:15.766Z,28.78
2022-08-11T19:49:03.831Z,28.73
2022-08-11T19:51:53.469Z,28.74
2022-08-11T19:54:43.552Z,28.72
2022-08-11T19:57:30.079Z,28.75
2022-08-11T20:00:16.956Z,28.71
2022-08-11T20:03:08.738Z,28.64
2022-08-11T20:05:59.633Z,28.55
2022-08-11T20:08:48.201Z,28.52
2022-08-11T20:11:34.695Z,28.52
2022-08-11T20:14:21.848Z,28.46
2022-08-11T20:17:07.196Z,28.41
2022-08-11T20:19:57.201Z,28.35
2022-08-11T20:22:48.697Z,28.33
2022-08-11T20:25:36.672Z,28.25
2022-08-11T20:28:24.420Z,28.27
2022-08-11T20:31:11.315Z,28.20
2022-08-11T20:33:57.995Z,28.19
2022-08-11T20:36:44.581Z,28.15
2022-08-11T20:39:34.253Z,28.10
2022-08-11T20:42:21.202Z,28.06
2022-08-11T20:45:08.194Z,28.02
2022-08-11T20:47:59.419Z,27.98
2022-08-11T20:50:46.402Z,27.89
2022-08-11T20:53:35.618Z,27.84
2022-08-11T20:56:28.609Z,27.69
2022-08-11T20:59:18.875Z,27.57
2022-08-11T21:02:09.617Z,27.23
2022-08-11T21:04:57.748Z,27.01
2022-08-11T21:07:56.816Z,26.86
2022-08-11T21:10:53.726Z,26.72
2022-08-11T21:13:42.714Z,26.61
2022-08-11T21:16:35.357Z,26.48
2022-08-11T21:19:59.799Z,26.41
2022-08-11T21:22:58.640Z,26.34
2022-08-11T21:25:49.056Z,26.41
2022-08-11T21:28:38.714Z,26.48
2022-08-11T21:31:27.271Z,26.52
2022-08-11T21:34:14.436Z,26.44
2022-08-11T21:37:02.398Z,26.29
2022-08-11T21:39:49.486Z,26.18
2022-08-11T21:42:39.782Z,26.07
2022-08-11T21:45:27.911Z,26.00
2022-08-11T21:48:15.214Z,25.88
2022-08-11T21:51:01.079Z,25.81
2022-08-11T21:53:46.836Z,25.76
2022-08-11T21:56:33.280Z,25.72
2022-08-11T21:59:20.765Z,25.58
2022-08-11T22:02:12.908Z,25.52
2022-08-11T22:04:59.935Z,25.48
2022-08-11T22:07:46.948Z,25.41
2022-08-11T22:10:42.042Z,25.36
2022-08-11T22:13:31.999Z,25.31
2022-08-11T22:16:20.978Z,25.28
2022-08-11T22:19:09.583Z,25.19
2022-08-11T22:22:02.809Z,25.13
2022-08-11T22:24:51.346Z,25.16
2022-08-11T22:27:37.010Z,25.13
2022-08-11T22:30:25.320Z,25.08
2022-08-11T22:33:11.782Z,25.02
2022-08-11T22:36:01.578Z,24.96
2022-08-11T22:38:47.436Z,24.95
2022-08-11T22:41:32.808Z,24.94
2022-08-11T22:44:18.095Z,24.87
2022-08-11T22:47:03.970Z,24.82
2022-08-11T22:49:58.134Z,24.72
2022-08-11T22:52:46.304Z,24.66
2022-08-11T22:55:33.245Z,24.56
2022-08-11T22:58:21.145Z,24.50
2022-08-11T23:01:08.065Z,24.48
2022-08-11T23:03:54.974Z,24.47
2022-08-11T23:06:41.348Z,24.44
2022-08-11T23:09:27.841Z,24.40
2022-08-11T23:12:13.797Z,24.34
2022-08-11T23:15:00.107Z,24.30
2022-08-11T23:17:46.406Z,24.28
2022-08-11T23:20:36.147Z,24.28
2022-08-11T23:23:40.467Z,24.16
2022-08-11T23:26:26.238Z,24.11
2022-08-11T23:29:14.914Z,24.10
2022-08-11T23:32:00.830Z,24.08
2022-08-11T23:35:03.513Z,24.10
2022-08-11T23:37:51.231Z,24.08
2022-08-11T23:40:37.244Z,24.06
2022-08-11T23:43:23.099Z,23.96
2022-08-11T23:46:08.509Z,23.91
2022-08-11T23:48:55.918Z,23.89
2022-08-11T23:51:42.156Z,23.92
2022-08-11T23:54:31.607Z,23.92
2022-08-11T23:57:22.008Z,23.88
